createdAt,value
2019-04-04T00:00:47.097Z,85.30
2019-04-04T00:03:16.226Z,85.30
2019-04-04T00:05:44.719Z,84.90
2019-04-04T00:08:13.836Z,85.70
2019-04-04T00:10:42.317Z,84.80
2019-04-04T00:13:11.135Z,84.50
2019-04-04T00:15:40.258Z,83.90
2019-04-04T00:18:08.765Z,83.50
2019-04-04T00:20:37.134Z,83.20
2019-04-04T00:23:06.887Z,82.60
2019-04-04T00:25:36.124Z,82.90
2019-04-04T00:28:04.959Z,83.00
2019-04-04T00:30:34.128Z,83.20
2019-04-04T00:33:03.063Z,82.80
2019-04-04T00:35:32.515Z,83.00
2019-04-04T00:38:00.995Z,82.80
2019-04-04T00:40:29.413Z,82.40
2019-04-04T00:42:57.893Z,82.30
2019-04-04T00:45:28.606Z,82.10
2019-04-04T00:47:56.726Z,81.70
2019-04-04T00:50:25.650Z,81.90
2019-04-04T00:52:54.147Z,81.90
2019-04-04T00:55:22.467Z,81.80
2019-04-04T00:57:50.962Z,81.60
2019-04-04T01:00:22.007Z,81.80
2019-04-04T01:02:50.816Z,81.60
2019-04-04T01:05:19.530Z,81.00
2019-04-04T01:07:47.863Z,81.40
2019-04-04T01:10:19.018Z,81.50
2019-04-04T01:12:47.464Z,81.40
2019-04-04T01:15:16.652Z,81.30
2019-04-04T01:17:45.102Z,81.40
2019-04-04T01:20:13.847Z,81.00
2019-04-04T01:22:42.376Z,80.90
2019-04-04T01:25:10.952Z,80.80
2019-04-04T01:27:39.351Z,80.70
2019-04-04T01:30:11.746Z,80.80
2019-04-04T01:32:39.316Z,80.40
2019-04-04T01:35:07.941Z,80.80
2019-04-04T01:37:37.986Z,80.40
2019-04-04T01:40:06.962Z,80.20
2019-04-04T01:42:37.803Z,80.30
2019-04-04T01:45:06.149Z,80.70
2019-04-04T01:47:35.014Z,81.00
2019-04-04T01:50:03.783Z,79.80
2019-04-04T01:52:32.487Z,80.10
2019-04-04T01:55:03.325Z,80.10
2019-04-04T01:57:31.646Z,80.10
2019-04-04T02:00:00.301Z,79.90
2019-04-04T02:02:29.299Z,79.70
2019-04-04T02:04:57.901Z,79.80
2019-04-04T02:07:27.832Z,80.20
2019-04-04T02:09:56.985Z,79.90
2019-04-04T02:12:25.394Z,80.20
2019-04-04T02:14:54.517Z,80.30
2019-04-04T02:17:23.101Z,80.00
2019-04-04T02:19:55.619Z,80.30
2019-04-04T02:22:23.408Z,79.80
2019-04-04T02:24:52.019Z,80.60
2019-04-04T02:27:20.531Z,80.50
2019-04-04T02:29:49.080Z,80.20
2019-04-04T02:32:18.460Z,80.00
2019-04-04T02:34:46.868Z,80.10
2019-04-04T02:37:15.919Z,80.10
2019-04-04T02:39:44.342Z,80.40
2019-04-04T02:42:12.719Z,80.00
2019-04-04T02:44:41.566Z,80.10
2019-04-04T02:47:10.125Z,79.80
2019-04-04T02:49:38.501Z,79.90
2019-04-04T02:52:06.951Z,80.20
2019-04-04T02:54:35.430Z,80.20
2019-04-04T02:57:07.953Z,80.50
2019-04-04T02:59:35.086Z,80.30
2019-04-04T03:02:05.749Z,80.10
2019-04-04T03:04:34.755Z,80.50
2019-04-04T03:07:03.369Z,80.00
2019-04-04T03:09:32.268Z,80.30
2019-04-04T03:12:01.107Z,80.20
2019-04-04T03:14:29.563Z,80.20
2019-04-04T03:16:58.030Z,80.20
2019-04-04T03:19:26.555Z,80.30
2019-04-04T03:21:56.088Z,80.30
2019-04-04T03:24:24.886Z,80.10
2019-04-04T03:26:53.777Z,79.70
2019-04-04T03:29:22.284Z,79.50
2019-04-04T03:31:50.777Z,78.80
2019-04-04T03:34:19.160Z,79.00
2019-04-04T03:36:47.956Z,79.40
2019-04-04T03:39:19.265Z,79.30
2019-04-04T03:41:47.191Z,79.30
2019-04-04T03:44:19.494Z,79.30
2019-04-04T03:46:46.277Z,79.10
2019-04-04T03:49:14.921Z,79.00
2019-04-04T03:51:43.463Z,78.70
2019-04-04T03:54:15.191Z,78.70
2019-04-04T03:56:44.184Z,78.50
2019-04-04T03:59:12.655Z,78.00
2019-04-04T04:01:45.501Z,77.90
2019-04-04T04:04:11.992Z,78.00
2019-04-04T04:06:42.075Z,78.30
2019-04-04T04:09:10.767Z,78.20
2019-04-04T04:11:39.330Z,78.40
2019-04-04T04:14:08.395Z,78.50
2019-04-04T04:16:36.935Z,78.00
2019-04-04T04:19:05.874Z,77.80
2019-04-04T04:21:34.241Z,77.30
2019-04-04T04:24:03.106Z,76.80
2019-04-04T04:26:31.513Z,76.30
2019-04-04T04:29:00.263Z,76.10
2019-04-04T04:31:28.800Z,76.30
2019-04-04T04:34:00.801Z,75.80
2019-04-04T04:36:27.710Z,76.00
2019-04-04T04:38:59.912Z,75.70
2019-04-04T04:41:26.941Z,74.80
2019-04-04T04:43:55.816Z,75.00
2019-04-04T04:46:24.356Z,75.10
2019-04-04T04:48:52.719Z,75.50
2019-04-04T04:51:21.268Z,74.00
2019-04-04T04:53:50.641Z,73.50
2019-04-04T04:56:19.747Z,73.50
2019-04-04T04:58:48.154Z,73.90
2019-04-04T05:01:18.353Z,74.30
2019-04-04T05:03:47.424Z,73.40
2019-04-04T05:06:18.124Z,73.80
2019-04-04T05:08:46.609Z,73.50
2019-04-04T05:11:16.873Z,73.80
2019-04-04T05:13:46.604Z,73.80
2019-04-04T05:16:15.165Z,73.20
2019-04-04T05:18:53.251Z,71.80
2019-04-04T05:21:25.442Z,71.80
2019-04-04T05:23:51.976Z,71.70
2019-04-04T05:26:20.476Z,71.80
2019-04-04T05:28:48.884Z,71.50
2019-04-04T05:31:18.240Z,71.90
2019-04-04T05:33:47.350Z,72.30
2019-04-04T05:36:15.867Z,71.30
2019-04-04T05:38:47.180Z,70.50
2019-04-04T05:41:16.578Z,70.30
2019-04-04T05:43:45.452Z,70.30
2019-04-04T05:46:13.957Z,70.50
2019-04-04T05:48:42.883Z,69.00
2019-04-04T05:51:14.954Z,69.50
2019-04-04T05:53:42.010Z,69.00
2019-04-04T05:56:10.464Z,68.40
2019-04-04T05:58:39.089Z,67.30
2019-04-04T06:01:09.024Z,66.00
2019-04-04T06:03:37.399Z,65.20
2019-04-04T06:06:05.929Z,65.60
2019-04-04T06:08:34.314Z,66.00
2019-04-04T06:11:02.740Z,64.90
2019-04-04T06:13:31.525Z,64.90
2019-04-04T06:16:02.058Z,64.30
2019-04-04T06:18:31.074Z,63.40
2019-04-04T06:20:59.679Z,62.90
2019-04-04T06:23:28.291Z,63.20
2019-04-04T06:25:57.340Z,63.00
2019-04-04T06:28:25.912Z,62.50
2019-04-04T06:30:54.456Z,61.00
2019-04-04T06:33:23.498Z,60.40
2019-04-04T06:35:52.042Z,60.10
2019-04-04T06:38:22.945Z,58.50
2019-04-04T06:40:51.069Z,58.40
2019-04-04T06:43:19.631Z,57.00
2019-04-04T06:45:49.204Z,57.10
2019-04-04T06:48:17.786Z,56.70
2019-04-04T06:50:46.299Z,57.50
2019-04-04T06:53:14.820Z,57.50
2019-04-04T06:55:43.379Z,58.50
2019-04-04T06:58:11.857Z,57.60
2019-04-04T07:00:41.978Z,57.00
2019-04-04T07:03:10.882Z,55.70
2019-04-04T07:05:39.311Z,56.40
2019-04-04T07:08:26.089Z,55.40
2019-04-04T07:10:58.110Z,54.60
2019-04-04T07:13:27.972Z,54.70
2019-04-04T07:16:06.123Z,55.50
2019-04-04T07:18:43.968Z,55.20
2019-04-04T07:21:12.554Z,54.00
2019-04-04T07:23:42.009Z,56.00
2019-04-04T07:26:14.583Z,54.60
2019-04-04T07:28:40.957Z,55.70
2019-04-04T07:31:09.814Z,54.80
2019-04-04T07:33:38.322Z,53.90
2019-04-04T07:36:06.972Z,53.70
2019-04-04T07:38:35.401Z,53.40
2019-04-04T07:41:07.873Z,51.00
2019-04-04T07:43:35.019Z,52.50
2019-04-04T07:46:15.661Z,51.30
2019-04-04T07:48:34.249Z,52.70
2019-04-04T07:51:02.810Z,51.50
2019-04-04T07:53:31.382Z,51.20
2019-04-04T07:55:59.924Z,51.80
2019-04-04T07:58:28.421Z,52.50
2019-04-04T08:00:56.976Z,51.60
2019-04-04T08:03:25.847Z,51.50
2019-04-04T08:05:54.237Z,51.40
2019-04-04T08:08:22.743Z,50.60
2019-04-04T08:10:51.172Z,51.30
2019-04-04T08:13:19.822Z,49.20
2019-04-04T08:15:48.194Z,47.20
2019-04-04T08:18:16.819Z,46.50
2019-04-04T08:20:45.287Z,45.20
2019-04-04T08:23:13.661Z,45.50
2019-04-04T08:25:43.255Z,44.90
2019-04-04T08:28:11.849Z,45.40
2019-04-04T08:30:40.787Z,44.30
2019-04-04T08:33:10.235Z,45.40
2019-04-04T08:35:39.246Z,46.20
2019-04-04T08:38:07.626Z,46.20
2019-04-04T08:40:36.242Z,45.80
2019-04-04T08:43:04.725Z,45.40
2019-04-04T08:45:33.139Z,44.50
2019-04-04T08:48:03.366Z,46.20
2019-04-04T08:50:31.764Z,46.50
2019-04-04T08:53:00.134Z,48.20
2019-04-04T08:55:28.674Z,47.40
2019-04-04T08:57:57.046Z,48.50
2019-04-04T09:00:25.925Z,46.90
2019-04-04T09:02:54.583Z,48.60
2019-04-04T09:05:23.064Z,48.90
2019-04-04T09:07:51.657Z,49.00
2019-04-04T09:10:20.142Z,48.40
2019-04-04T09:12:48.541Z,48.20
2019-04-04T09:15:17.425Z,48.70
2019-04-04T09:17:46.142Z,48.40
2019-04-04T09:20:14.837Z,50.10
2019-04-04T09:22:43.884Z,54.00
2019-04-04T09:25:12.972Z,60.50
2019-04-04T09:27:41.378Z,63.90
2019-04-04T09:30:10.955Z,65.80
2019-04-04T09:32:39.642Z,65.80
2019-04-04T09:35:08.562Z,61.70
2019-04-04T09:37:37.139Z,60.70
2019-04-04T09:40:07.153Z,62.00
2019-04-04T09:42:35.729Z,59.80
2019-04-04T09:45:04.970Z,58.50
2019-04-04T09:47:33.624Z,60.10
2019-04-04T09:50:02.355Z,58.70
2019-04-04T09:52:30.935Z,56.40
2019-04-04T09:55:00.341Z,57.80
2019-04-04T09:57:28.728Z,61.40
2019-04-04T09:59:57.247Z,68.50
2019-04-04T10:02:26.489Z,71.20
2019-04-04T10:04:55.039Z,73.10
2019-04-04T10:07:25.220Z,74.80
2019-04-04T10:09:53.984Z,76.40
2019-04-04T10:12:22.459Z,73.40
2019-04-04T10:14:50.891Z,74.30
2019-04-04T10:17:19.594Z,73.70
2019-04-04T10:19:48.609Z,73.20
2019-04-04T10:22:17.175Z,74.00
2019-04-04T10:24:45.920Z,74.70
2019-04-04T10:27:14.578Z,75.30
2019-04-04T10:29:43.111Z,71.80
2019-04-04T10:32:11.548Z,73.30
2019-04-04T10:34:40.436Z,72.60
2019-04-04T10:37:08.949Z,75.60
2019-04-04T10:39:37.594Z,78.40
2019-04-04T10:42:06.097Z,80.80
2019-04-04T10:44:37.077Z,81.70
2019-04-04T10:47:06.279Z,82.80
2019-04-04T10:49:35.102Z,85.90
2019-04-04T10:52:03.591Z,86.10
2019-04-04T10:54:32.145Z,86.10
2019-04-04T10:57:00.684Z,83.90
2019-04-04T10:59:29.186Z,85.70
2019-04-04T11:02:00.699Z,86.30
2019-04-04T11:04:28.088Z,86.90
2019-04-04T11:06:56.473Z,88.80
2019-04-04T11:09:25.054Z,86.70
2019-04-04T11:11:53.662Z,88.60
2019-04-04T11:14:25.096Z,86.40
2019-04-04T11:16:53.686Z,86.30
2019-04-04T11:19:31.046Z,83.70
2019-04-04T11:21:52.684Z,84.80
2019-04-04T11:24:21.380Z,84.30
2019-04-04T11:26:50.123Z,85.30
2019-04-04T11:29:18.721Z,85.30
2019-04-04T11:31:47.476Z,87.00
2019-04-04T11:34:16.120Z,88.70
2019-04-04T11:36:44.776Z,88.80
2019-04-04T11:39:13.530Z,91.30
2019-04-04T11:41:42.294Z,89.50
2019-04-04T11:44:10.856Z,91.30
2019-04-04T11:46:39.447Z,91.80
2019-04-04T11:49:07.994Z,92.80
2019-04-04T11:51:36.395Z,92.80
2019-04-04T11:54:05.154Z,95.00
2019-04-04T11:56:33.615Z,95.40
2019-04-04T11:59:02.121Z,96.90
2019-04-04T12:01:32.042Z,98.60
2019-04-04T12:04:00.619Z,99.10
2019-04-04T12:06:29.239Z,99.50
2019-04-04T12:08:58.641Z,99.90
2019-04-04T12:11:27.067Z,99.90
2019-04-04T12:13:56.639Z,99.90
2019-04-04T12:16:26.304Z,99.90
2019-04-04T12:18:54.916Z,99.90
2019-04-04T12:21:23.897Z,99.90
2019-04-04T12:23:52.383Z,99.90
2019-04-04T12:26:20.942Z,99.90
2019-04-04T12:28:49.605Z,99.90
2019-04-04T12:31:18.295Z,99.90
2019-04-04T12:33:46.892Z,99.90
2019-04-04T12:36:24.390Z,99.90
2019-04-04T12:38:47.090Z,99.90
2019-04-04T12:41:15.680Z,99.90
2019-04-04T12:43:44.129Z,99.90
2019-04-04T12:46:12.686Z,99.90
2019-04-04T12:48:41.467Z,99.90
2019-04-04T12:51:11.054Z,99.90
2019-04-04T12:53:39.982Z,99.90
2019-04-04T12:56:08.602Z,99.90
2019-04-04T12:58:37.279Z,99.90
2019-04-04T13:01:05.821Z,99.90
2019-04-04T13:03:34.414Z,99.90
2019-04-04T13:06:02.982Z,99.90
2019-04-04T13:08:32.497Z,99.90
2019-04-04T13:11:00.964Z,99.90
2019-04-04T13:13:29.382Z,99.90
2019-04-04T13:15:58.684Z,99.90
2019-04-04T13:18:27.667Z,99.90
2019-04-04T13:20:56.241Z,99.90
2019-04-04T13:23:24.924Z,99.90
2019-04-04T13:25:53.669Z,99.90
2019-04-04T13:28:22.300Z,99.90
2019-04-04T13:30:50.908Z,99.90
2019-04-04T13:33:22.424Z,99.90
2019-04-04T13:35:49.961Z,99.90
2019-04-04T13:38:19.835Z,99.90
2019-04-04T13:40:48.368Z,99.90
2019-04-04T13:43:16.972Z,99.90
2019-04-04T13:45:45.562Z,99.90
2019-04-04T13:48:33.363Z,99.90
2019-04-04T13:51:02.012Z,99.90
2019-04-04T13:53:30.529Z,99.90
2019-04-04T13:55:59.291Z,99.90
2019-04-04T13:58:30.289Z,99.90
2019-04-04T14:01:00.421Z,99.90
2019-04-04T14:03:28.871Z,99.90
2019-04-04T14:05:57.434Z,99.90
2019-04-04T14:08:28.649Z,99.90
2019-04-04T14:10:59.387Z,99.90
2019-04-04T14:13:28.001Z,99.90
2019-04-04T14:15:56.974Z,99.90
2019-04-04T14:18:38.999Z,99.90
2019-04-04T14:21:03.926Z,99.90
2019-04-04T14:23:31.342Z,99.90
2019-04-04T14:26:00.676Z,99.90
2019-04-04T14:28:29.597Z,99.90
2019-04-04T14:30:59.446Z,99.90
2019-04-04T14:33:28.147Z,99.90
2019-04-04T14:35:56.773Z,99.90
2019-04-04T14:38:25.537Z,99.90
2019-04-04T14:40:55.059Z,99.90
2019-04-04T14:43:24.114Z,99.90
2019-04-04T14:45:55.320Z,99.90
2019-04-04T14:48:23.967Z,99.90
2019-04-04T14:50:54.757Z,99.90
2019-04-04T14:53:24.156Z,99.90
2019-04-04T14:55:55.136Z,99.90
2019-04-04T14:58:24.248Z,99.90
2019-04-04T15:00:53.337Z,99.90
2019-04-04T15:03:23.456Z,99.90
2019-04-04T15:05:52.085Z,99.90
2019-04-04T15:08:21.713Z,99.90
2019-04-04T15:10:50.399Z,99.90
2019-04-04T15:13:19.586Z,99.90
2019-04-04T15:16:17.326Z,99.90
2019-04-04T15:18:48.991Z,99.90
2019-04-04T15:21:17.787Z,99.90
2019-04-04T15:23:46.878Z,99.90
2019-04-04T15:26:15.656Z,99.90
2019-04-04T15:28:44.372Z,99.90
2019-04-04T15:31:13.166Z,99.90
2019-04-04T15:33:41.866Z,99.90
2019-04-04T15:36:11.769Z,99.90
2019-04-04T15:38:41.593Z,99.90
2019-04-04T15:41:10.401Z,99.90
2019-04-04T15:43:39.670Z,99.90
2019-04-04T15:46:08.346Z,99.90
2019-04-04T15:48:37.032Z,99.90
2019-04-04T15:51:06.121Z,99.90
2019-04-04T15:53:35.024Z,99.90
2019-04-04T15:56:03.749Z,99.90
2019-04-04T15:58:33.862Z,99.90
2019-04-04T16:01:04.420Z,99.90
2019-04-04T16:03:33.041Z,99.90
2019-04-04T16:06:04.995Z,99.90
2019-04-04T16:08:36.131Z,99.90
2019-04-04T16:11:05.105Z,99.90
2019-04-04T16:13:36.428Z,99.90
2019-04-04T16:16:07.416Z,99.90
2019-04-04T16:18:36.102Z,99.90
2019-04-04T16:21:05.809Z,99.90
2019-04-04T16:23:35.555Z,99.90
2019-04-04T16:26:04.259Z,99.90
2019-04-04T16:28:34.067Z,99.90
2019-04-04T16:31:04.784Z,99.90
2019-04-04T16:33:33.655Z,99.90
2019-04-04T16:36:05.261Z,99.90
2019-04-04T16:38:36.380Z,99.90
2019-04-04T16:41:05.328Z,99.90
2019-04-04T16:43:34.396Z,99.90
2019-04-04T16:46:04.371Z,99.90
2019-04-04T16:48:33.031Z,99.90
2019-04-04T16:51:01.531Z,99.90
2019-04-04T16:53:30.188Z,99.90
2019-04-04T16:55:58.720Z,99.90
2019-04-04T16:58:27.250Z,99.90
2019-04-04T17:00:57.502Z,99.90
2019-04-04T17:03:27.678Z,99.90
2019-04-04T17:05:56.304Z,99.90
2019-04-04T17:08:26.142Z,99.90
2019-04-04T17:10:55.342Z,99.90
2019-04-04T17:13:23.884Z,99.90
2019-04-04T17:16:10.859Z,99.90
2019-04-04T17:18:39.472Z,99.90
2019-04-04T17:21:08.011Z,99.90
2019-04-04T17:23:36.620Z,99.90
2019-04-04T17:26:06.511Z,99.90
2019-04-04T17:28:36.395Z,99.90
2019-04-04T17:31:07.127Z,99.90
2019-04-04T17:33:36.943Z,99.90
2019-04-04T17:36:05.982Z,99.90
2019-04-04T17:38:35.807Z,96.50
2019-04-04T17:41:04.486Z,96.50
2019-04-04T17:43:35.136Z,98.10
2019-04-04T17:46:05.488Z,98.60
2019-04-04T17:48:36.805Z,99.90
2019-04-04T17:51:09.489Z,99.90
2019-04-04T17:53:38.069Z,99.90
2019-04-04T17:56:06.577Z,99.90
2019-04-04T17:58:35.707Z,99.90
2019-04-04T18:01:05.841Z,99.90
2019-04-04T18:03:34.475Z,99.90
2019-04-04T18:06:03.041Z,99.90
2019-04-04T18:08:31.672Z,99.90
2019-04-04T18:11:01.426Z,99.90
2019-04-04T18:13:32.057Z,99.90
2019-04-04T18:16:00.573Z,99.90
2019-04-04T18:18:29.142Z,99.90
2019-04-04T18:21:12.607Z,99.90
2019-04-04T18:23:41.389Z,99.90
2019-04-04T18:26:13.134Z,99.90
2019-04-04T18:28:42.643Z,99.90
2019-04-04T18:31:13.666Z,99.90
2019-04-04T18:33:42.453Z,99.90
2019-04-04T18:36:11.620Z,99.90
2019-04-04T18:38:40.220Z,99.90
2019-04-04T18:41:10.391Z,99.90
2019-04-04T18:43:38.982Z,99.90
2019-04-04T18:46:08.229Z,99.90
2019-04-04T18:48:37.061Z,99.90
2019-04-04T18:51:05.521Z,99.90
2019-04-04T18:53:52.468Z,99.90
2019-04-04T18:56:22.304Z,99.90
2019-04-04T18:58:50.901Z,99.90
2019-04-04T19:01:19.665Z,99.90
2019-04-04T19:03:48.328Z,99.90
2019-04-04T19:06:19.399Z,99.90
2019-04-04T19:08:50.539Z,99.90
2019-04-04T19:14:23.359Z,99.90
2019-04-04T19:16:51.891Z,99.90
2019-04-04T19:19:21.002Z,99.90
2019-04-04T19:21:51.748Z,99.90
2019-04-04T19:24:20.333Z,99.90
2019-04-04T19:26:49.486Z,99.90
2019-04-04T19:29:19.316Z,99.90
2019-04-04T19:31:48.367Z,99.90
2019-04-04T19:34:16.931Z,99.90
2019-04-04T19:36:45.497Z,99.90
2019-04-04T19:39:17.030Z,99.90
2019-04-04T19:41:45.954Z,99.90
2019-04-04T19:44:14.584Z,99.90
2019-04-04T19:46:44.103Z,99.90
2019-04-04T19:49:13.115Z,99.90
2019-04-04T19:51:41.778Z,99.90
2019-04-04T19:54:10.279Z,99.90
2019-04-04T19:56:38.792Z,99.90
2019-04-04T19:59:07.642Z,99.90
2019-04-04T20:01:37.218Z,99.90
2019-04-04T20:04:06.163Z,99.90
2019-04-04T20:06:37.919Z,99.90
2019-04-04T20:09:14.501Z,99.90
2019-04-04T20:11:43.744Z,99.90
2019-04-04T20:14:30.941Z,99.90
2019-04-04T20:17:00.490Z,99.90
2019-04-04T20:19:32.364Z,99.90
2019-04-04T20:22:00.867Z,99.90
2019-04-04T20:24:30.388Z,99.90
2019-04-04T20:26:59.276Z,99.90
2019-04-04T20:29:28.067Z,99.90
2019-04-04T20:31:56.813Z,99.90
2019-04-04T20:34:27.821Z,99.90
2019-04-04T20:36:56.366Z,99.90
2019-04-04T20:39:24.937Z,99.90
2019-04-04T20:41:57.971Z,99.90
2019-04-04T20:44:26.521Z,99.90
2019-04-04T20:46:56.166Z,99.90
2019-04-04T20:49:24.607Z,99.90
2019-04-04T20:51:54.966Z,99.90
2019-04-04T20:54:23.453Z,99.90
2019-04-04T20:56:53.636Z,99.90
2019-04-04T20:59:22.218Z,99.90
2019-04-04T21:01:51.954Z,99.90
2019-04-04T21:04:20.878Z,99.90
2019-04-04T21:06:51.772Z,99.90
2019-04-04T21:09:20.728Z,99.90
2019-04-04T21:11:49.233Z,99.90
2019-04-04T21:14:17.763Z,99.90
2019-04-04T21:16:46.528Z,99.90
2019-04-04T21:19:14.977Z,99.90
2019-04-04T21:21:45.217Z,99.90
2019-04-04T21:24:13.706Z,99.90
2019-04-04T21:26:44.218Z,99.90
2019-04-04T21:29:13.209Z,99.90
2019-04-04T21:31:41.672Z,99.90
2019-04-04T21:34:10.164Z,99.90
2019-04-04T21:36:38.681Z,99.90
2019-04-04T21:39:08.112Z,99.90
2019-04-04T21:41:36.653Z,99.90
2019-04-04T21:44:09.113Z,99.90
2019-04-04T21:46:38.498Z,99.90
2019-04-04T21:49:06.986Z,99.90
2019-04-04T21:51:35.435Z,99.90
2019-04-04T21:54:04.000Z,99.90
2019-04-04T21:56:32.566Z,99.90
2019-04-04T21:59:01.002Z,99.90
2019-04-04T22:01:29.547Z,99.90
2019-04-04T22:03:59.193Z,99.90
2019-04-04T22:06:27.598Z,99.90
2019-04-04T22:08:56.429Z,99.90
2019-04-04T22:11:26.253Z,99.70
2019-04-04T22:13:54.900Z,99.40
2019-04-04T22:16:23.276Z,99.10
2019-04-04T22:18:51.760Z,98.60
2019-04-04T22:21:20.218Z,98.30
2019-04-04T22:23:48.676Z,99.50
2019-04-04T22:26:17.111Z,99.90
2019-04-04T22:28:45.877Z,99.90
2019-04-04T22:31:15.238Z,99.90
2019-04-04T22:33:43.668Z,99.90
2019-04-04T22:36:12.038Z,99.90
2019-04-04T22:38:40.406Z,99.90
2019-04-04T22:41:08.876Z,99.90
2019-04-04T22:43:37.255Z,99.90
2019-04-04T22:46:05.761Z,99.90
2019-04-04T22:48:34.351Z,99.90
2019-04-04T22:51:05.061Z,99.90
2019-04-04T22:53:33.532Z,99.90
2019-04-04T22:56:02.038Z,99.40
2019-04-04T22:58:30.408Z,99.10
2019-04-04T23:00:59.753Z,99.10
2019-04-04T23:03:29.040Z,99.50
2019-04-04T23:05:57.486Z,99.50
2019-04-04T23:08:26.459Z,99.80
2019-04-04T23:10:54.807Z,99.90
2019-04-04T23:13:23.288Z,99.90
2019-04-04T23:15:51.708Z,99.90
2019-04-04T23:18:20.136Z,99.90
2019-04-04T23:20:48.811Z,99.90
2019-04-04T23:23:17.254Z,99.90
2019-04-04T23:25:45.618Z,99.90
2019-04-04T23:28:13.991Z,99.90
2019-04-04T23:30:43.491Z,99.90
2019-04-04T23:33:11.933Z,99.90
2019-04-04T23:35:40.447Z,99.90
2019-04-04T23:38:10.421Z,99.90
2019-04-04T23:40:38.784Z,99.90
2019-04-04T23:43:07.370Z,99.90
2019-04-04T23:45:35.850Z,99.90
2019-04-04T23:48:04.765Z,99.90
2019-04-04T23:50:33.203Z,99.90
2019-04-04T23:53:01.710Z,99.90
2019-04-04T23:55:30.640Z,99.90
2019-04-04T23:57:59.050Z,99.90
